Terminal Aerodrome Forecast
Issued by NWS Charleston, WV

Current Version | Previous Version | Text Only | Print | Product List | Glossary On
Versions: 1 2 3 4 5 6 7 8 9 10 11 12 13 14 15 16 17 18 19 20 21 22 23 24
000
FTUS41 KRLX 051501 AAA
TAFCRW
TAF AMD
KCRW 051501Z 0515/0612 29005KT 5SM -SHRA SCT012 OVC020
     FM051800 29005KT 3SM -SHRA BR SCT007 OVC012
     FM060100 31006KT 4SM -SHRA BR OVC010
     FM060500 33006KT 5SM BR BKN008=

USA.gov is the U.S. government's official web portal to all federal, state and local government web resources and services.